createdAt,value
2024-03-26T00:00:49.469Z,4.9685
2024-03-26T00:01:52.273Z,4.9092
2024-03-26T00:02:55.032Z,4.8903
2024-03-26T00:03:57.708Z,4.8693
2024-03-26T00:05:00.398Z,4.8409
2024-03-26T00:06:03.123Z,4.9003
2024-03-26T00:07:05.869Z,4.8909
2024-03-26T00:08:08.534Z,5.0495
2024-03-26T00:09:11.257Z,5.0024
2024-03-26T00:10:14.013Z,4.9564
2024-03-26T00:11:16.736Z,5.0243
2024-03-26T00:12:19.524Z,5.0176
2024-03-26T00:13:22.184Z,4.9375
2024-03-26T00:14:24.953Z,4.9334
2024-03-26T00:15:27.618Z,4.9249
2024-03-26T00:16:30.335Z,4.9326
2024-03-26T00:17:33.017Z,4.8622
2024-03-26T00:18:35.763Z,4.8536
2024-03-26T00:19:38.506Z,4.9672
2024-03-26T00:20:41.184Z,4.9076
2024-03-26T00:21:43.962Z,4.8261
2024-03-26T00:22:46.659Z,4.7988
2024-03-26T00:23:49.346Z,4.7785
2024-03-26T00:24:52.026Z,4.7467
2024-03-26T00:25:54.747Z,4.8163
2024-03-26T00:26:57.562Z,4.8518
2024-03-26T00:28:00.280Z,4.8309
2024-03-26T00:29:02.942Z,4.8042
2024-03-26T00:30:05.702Z,4.8318
2024-03-26T00:31:08.435Z,4.7432
2024-03-26T00:32:11.477Z,4.6818
2024-03-26T00:33:14.223Z,4.6583
2024-03-26T00:34:16.889Z,4.6966
2024-03-26T00:35:19.627Z,4.6926
2024-03-26T00:36:22.457Z,4.6376
2024-03-26T00:37:25.150Z,4.6140
2024-03-26T00:38:27.893Z,4.6281
2024-03-26T00:39:30.629Z,4.6383
2024-03-26T00:40:33.312Z,4.6987
2024-03-26T00:41:36.004Z,4.6772
2024-03-26T00:42:38.651Z,4.6598
2024-03-26T00:43:41.388Z,4.6229
2024-03-26T00:44:44.097Z,4.6850
2024-03-26T00:45:46.820Z,4.6561
2024-03-26T00:46:49.503Z,4.6258
2024-03-26T00:47:52.264Z,4.6168
2024-03-26T00:48:54.941Z,4.6254
2024-03-26T00:49:57.698Z,4.6465
2024-03-26T00:51:00.417Z,4.5890
2024-03-26T00:52:03.177Z,4.5304
2024-03-26T00:53:05.867Z,4.4806
2024-03-26T00:54:08.576Z,4.4043
2024-03-26T00:55:11.242Z,4.3244
2024-03-26T00:56:14.017Z,4.3462
2024-03-26T00:57:16.720Z,4.3551
2024-03-26T00:58:19.458Z,4.3005
2024-03-26T00:59:22.161Z,4.3977
2024-03-26T01:00:24.840Z,4.6024
2024-03-26T01:01:27.531Z,4.6324
2024-03-26T01:02:30.385Z,4.5815
2024-03-26T01:03:33.051Z,4.4333
2024-03-26T01:04:35.776Z,4.3552
2024-03-26T01:05:38.445Z,4.3379
2024-03-26T01:06:41.217Z,4.3127
2024-03-26T01:07:43.906Z,4.3097
2024-03-26T01:08:46.589Z,4.2496
2024-03-26T01:09:49.304Z,4.2594
2024-03-26T01:10:52.176Z,4.4088
2024-03-26T01:11:54.871Z,4.3762
2024-03-26T01:12:57.590Z,4.2250
2024-03-26T01:14:00.252Z,4.2067
2024-03-26T01:15:03.014Z,4.1246
2024-03-26T01:16:05.702Z,4.1241
2024-03-26T01:17:08.445Z,4.0864
2024-03-26T01:18:11.078Z,4.1082
2024-03-26T01:19:13.916Z,4.0723
2024-03-26T01:20:16.891Z,4.0062
2024-03-26T01:21:22.866Z,4.0259
2024-03-26T01:22:22.784Z,4.1350
2024-03-26T01:23:25.440Z,4.1648
2024-03-26T01:24:28.185Z,4.0691
2024-03-26T01:25:31.077Z,4.0753
2024-03-26T01:26:33.858Z,4.2228
2024-03-26T01:27:36.586Z,4.2594
2024-03-26T01:28:39.300Z,4.4097
2024-03-26T01:29:41.969Z,4.3736
2024-03-26T01:30:44.721Z,4.3673
2024-03-26T01:31:47.466Z,4.3624
2024-03-26T01:32:50.217Z,4.4576
2024-03-26T01:33:52.905Z,4.3383
2024-03-26T01:34:55.918Z,4.3045
2024-03-26T01:35:58.670Z,4.3825
2024-03-26T01:37:01.383Z,4.4112
2024-03-26T01:38:04.019Z,4.3058
2024-03-26T01:39:06.794Z,4.2269
2024-03-26T01:40:09.544Z,4.1929
2024-03-26T01:41:12.246Z,4.1492
2024-03-26T01:42:14.984Z,4.1510
2024-03-26T01:43:17.668Z,4.1909
2024-03-26T01:44:20.430Z,4.1981
2024-03-26T01:45:23.137Z,4.1570
2024-03-26T01:46:25.857Z,4.0956
2024-03-26T01:47:28.535Z,4.1622
2024-03-26T01:48:31.309Z,4.1833
2024-03-26T01:49:34.017Z,4.2064
2024-03-26T01:50:36.789Z,4.1888
2024-03-26T01:51:39.522Z,4.1732
2024-03-26T01:52:42.197Z,4.1122
2024-03-26T01:53:44.963Z,4.0692
2024-03-26T01:54:47.698Z,4.0726
2024-03-26T01:55:50.365Z,4.0628
2024-03-26T01:56:53.063Z,4.0094
2024-03-26T01:57:55.732Z,3.9787
2024-03-26T01:58:58.429Z,3.9494
2024-03-26T02:00:01.145Z,3.9123
2024-03-26T02:01:03.941Z,3.8325
2024-03-26T02:02:06.651Z,3.7961
2024-03-26T02:03:09.318Z,3.7719
2024-03-26T02:04:12.102Z,3.8234
2024-03-26T02:05:14.822Z,3.9844
2024-03-26T02:06:17.533Z,4.0304
2024-03-26T02:07:20.219Z,3.9713
2024-03-26T02:08:22.988Z,3.8347
2024-03-26T02:09:25.699Z,3.7771
2024-03-26T02:10:28.410Z,3.7931
2024-03-26T02:11:31.143Z,3.7374
2024-03-26T02:12:33.873Z,3.6010
2024-03-26T02:13:36.607Z,3.6348
2024-03-26T02:14:39.346Z,3.5657
2024-03-26T02:15:42.078Z,3.6239
2024-03-26T02:16:44.802Z,3.6062
2024-03-26T02:17:47.566Z,3.7044
2024-03-26T02:18:50.224Z,3.7491
2024-03-26T02:19:52.960Z,3.7687
2024-03-26T02:20:55.732Z,3.9043
2024-03-26T02:21:58.478Z,3.9068
2024-03-26T02:23:01.188Z,3.8841
2024-03-26T02:24:04.134Z,3.8575
2024-03-26T02:25:06.820Z,3.8531
2024-03-26T02:26:09.558Z,3.8244
2024-03-26T02:27:12.255Z,3.9037
2024-03-26T02:28:14.970Z,3.9092
2024-03-26T02:29:17.742Z,3.9289
2024-03-26T02:30:20.427Z,3.8700
2024-03-26T02:31:23.138Z,3.8403
2024-03-26T02:32:25.962Z,3.7891
2024-03-26T02:33:28.655Z,3.8471
2024-03-26T02:34:31.405Z,3.9415
2024-03-26T02:35:34.131Z,3.9655
2024-03-26T02:36:36.854Z,3.9775
2024-03-26T02:37:39.581Z,3.9485
2024-03-26T02:38:42.358Z,3.9203
2024-03-26T02:39:45.160Z,4.0338
2024-03-26T02:40:47.939Z,4.0658
2024-03-26T02:41:50.717Z,4.0802
2024-03-26T02:42:53.448Z,4.0829
2024-03-26T02:43:56.228Z,4.0909
2024-03-26T02:44:58.963Z,4.0591
2024-03-26T02:46:01.852Z,4.0676
2024-03-26T02:47:04.586Z,4.0646
2024-03-26T02:48:07.324Z,4.0507
2024-03-26T02:49:10.011Z,4.0290
2024-03-26T02:50:12.742Z,3.9686
2024-03-26T02:51:15.458Z,3.9620
2024-03-26T02:52:18.173Z,3.9492
2024-03-26T02:53:20.958Z,3.9154
2024-03-26T02:54:23.675Z,3.9078
2024-03-26T02:55:26.569Z,3.9677
2024-03-26T02:56:29.372Z,4.1038
2024-03-26T02:57:32.113Z,4.0692
2024-03-26T02:58:34.850Z,4.0063
2024-03-26T02:59:37.668Z,3.9642
2024-03-26T03:00:40.556Z,3.9378
2024-03-26T03:01:43.297Z,3.8569
2024-03-26T03:02:47.255Z,3.8176
2024-03-26T03:03:47.137Z,3.8179
2024-03-26T03:04:49.977Z,3.7826
2024-03-26T03:05:52.719Z,3.8394
2024-03-26T03:06:55.425Z,3.9798
2024-03-26T03:07:58.154Z,4.0369
2024-03-26T03:09:00.937Z,4.0327
2024-03-26T03:10:03.751Z,4.0403
2024-03-26T03:11:06.482Z,4.0321
2024-03-26T03:12:09.217Z,3.9764
2024-03-26T03:13:11.996Z,3.9764
2024-03-26T03:14:14.777Z,4.0115
2024-03-26T03:15:17.515Z,3.9571
2024-03-26T03:16:20.244Z,3.9704
2024-03-26T03:17:23.041Z,3.9943
2024-03-26T03:18:25.854Z,3.9761
2024-03-26T03:19:28.578Z,4.0045
2024-03-26T03:20:31.321Z,3.9933
2024-03-26T03:21:34.068Z,3.9145
2024-03-26T03:22:36.840Z,3.8845
2024-03-26T03:23:39.773Z,4.0047
2024-03-26T03:24:42.497Z,4.0189
2024-03-26T03:25:45.262Z,3.9953
2024-03-26T03:26:48.011Z,4.0780
2024-03-26T03:27:50.724Z,4.0642
2024-03-26T03:28:53.437Z,3.9728
2024-03-26T03:29:56.177Z,3.9550
2024-03-26T03:30:58.968Z,3.9663
2024-03-26T03:32:01.696Z,3.9360
2024-03-26T03:33:04.580Z,3.9005
2024-03-26T03:34:07.285Z,3.8811
2024-03-26T03:35:10.040Z,3.8707
2024-03-26T03:36:12.722Z,3.9031
2024-03-26T03:37:15.464Z,3.8783
2024-03-26T03:38:18.165Z,3.9146
2024-03-26T03:39:20.899Z,3.9172
2024-03-26T03:40:23.603Z,3.9419
2024-03-26T03:41:26.340Z,4.0192
2024-03-26T03:42:29.045Z,4.1134
2024-03-26T03:43:31.778Z,4.1756
2024-03-26T03:44:34.495Z,4.1906
2024-03-26T03:45:37.479Z,4.2336
2024-03-26T03:46:40.245Z,4.2008
2024-03-26T03:47:42.988Z,4.1539
2024-03-26T03:48:45.680Z,4.1812
2024-03-26T03:49:48.393Z,4.2524
2024-03-26T03:50:51.242Z,4.2567
2024-03-26T03:51:53.962Z,4.2400
2024-03-26T03:52:56.692Z,4.2416
2024-03-26T03:53:59.420Z,4.2793
2024-03-26T03:55:02.338Z,4.3024
2024-03-26T03:56:05.057Z,4.2952
2024-03-26T03:57:07.785Z,4.2415
2024-03-26T03:58:10.831Z,4.1633
2024-03-26T03:59:13.531Z,4.1136
2024-03-26T04:00:16.272Z,4.0894
2024-03-26T04:01:18.968Z,4.0397
2024-03-26T04:02:21.693Z,4.0467
2024-03-26T04:03:24.460Z,4.0210
2024-03-26T04:04:27.228Z,4.0848
2024-03-26T04:05:29.955Z,4.0281
2024-03-26T04:06:32.731Z,4.1238
2024-03-26T04:07:35.620Z,4.1011
2024-03-26T04:08:38.336Z,4.1473
2024-03-26T04:09:41.048Z,4.1342
2024-03-26T04:10:43.767Z,4.1231
2024-03-26T04:11:46.485Z,4.0959
2024-03-26T04:12:49.299Z,4.0404
2024-03-26T04:13:52.014Z,4.0200
2024-03-26T04:14:54.749Z,3.9878
2024-03-26T04:15:57.696Z,4.0979
2024-03-26T04:17:00.426Z,4.1213
2024-03-26T04:18:03.207Z,4.1492
2024-03-26T04:19:05.977Z,4.1849
2024-03-26T04:20:08.717Z,4.2100
2024-03-26T04:21:11.402Z,4.2057
2024-03-26T04:22:14.140Z,4.1671
2024-03-26T04:23:16.912Z,4.1201
2024-03-26T04:24:19.776Z,4.0743
2024-03-26T04:25:22.593Z,4.0167
2024-03-26T04:26:25.322Z,3.9583
2024-03-26T04:27:28.060Z,3.9124
2024-03-26T04:28:30.808Z,3.8627
2024-03-26T04:29:33.548Z,3.7335
2024-03-26T04:30:36.395Z,3.7040
2024-03-26T04:31:39.142Z,3.6917
2024-03-26T04:32:41.860Z,3.8136
2024-03-26T04:33:44.591Z,3.8660
2024-03-26T04:34:47.271Z,3.9051
2024-03-26T04:35:50.038Z,3.8946
2024-03-26T04:36:52.723Z,3.8974
2024-03-26T04:37:55.457Z,3.8261
2024-03-26T04:38:58.484Z,3.7068
2024-03-26T04:40:01.253Z,3.6740
2024-03-26T04:41:04.007Z,3.6808
2024-03-26T04:42:06.748Z,3.6857
2024-03-26T04:43:09.455Z,3.6872
2024-03-26T04:44:12.207Z,3.6832
2024-03-26T04:45:14.944Z,3.6258
2024-03-26T04:46:17.667Z,3.6314
2024-03-26T04:47:20.605Z,3.6467
2024-03-26T04:48:23.379Z,3.7081
2024-03-26T04:49:26.086Z,3.7285
2024-03-26T04:50:28.887Z,3.6411
2024-03-26T04:51:31.774Z,3.5359
2024-03-26T04:52:34.520Z,3.4893
2024-03-26T04:53:37.342Z,3.4705
2024-03-26T04:54:40.251Z,3.4626
2024-03-26T04:55:42.964Z,3.4547
2024-03-26T04:56:45.684Z,3.4092
2024-03-26T04:57:48.412Z,3.3809
2024-03-26T04:58:51.151Z,3.3137
2024-03-26T04:59:53.860Z,3.2582
2024-03-26T05:00:56.577Z,3.2674
2024-03-26T05:01:59.376Z,3.4930
2024-03-26T05:03:02.135Z,3.5653
2024-03-26T05:04:04.876Z,3.5455
2024-03-26T05:05:07.618Z,3.4979
2024-03-26T05:06:10.430Z,3.4383
2024-03-26T05:07:13.154Z,3.4111
2024-03-26T05:08:15.946Z,3.4292
2024-03-26T05:09:18.649Z,3.4148
2024-03-26T05:10:21.397Z,3.3476
2024-03-26T05:11:24.154Z,3.2916
2024-03-26T05:12:27.220Z,3.2609
2024-03-26T05:13:29.925Z,3.2650
2024-03-26T05:14:32.890Z,3.2966
2024-03-26T05:15:35.612Z,3.3111
2024-03-26T05:16:38.379Z,3.3872
2024-03-26T05:17:41.118Z,3.3778
2024-03-26T05:18:43.852Z,3.3554
2024-03-26T05:19:46.584Z,3.3539
2024-03-26T05:20:49.348Z,3.4043
2024-03-26T05:21:52.196Z,3.4791
2024-03-26T05:22:55.009Z,3.5270
2024-03-26T05:23:57.755Z,3.5392
2024-03-26T05:25:00.503Z,3.4941
2024-03-26T05:26:03.456Z,3.5043
2024-03-26T05:27:06.239Z,3.5123
2024-03-26T05:28:08.967Z,3.4490
2024-03-26T05:29:11.776Z,3.3874
2024-03-26T05:30:14.478Z,3.4190
2024-03-26T05:31:17.159Z,3.5224
2024-03-26T05:32:19.845Z,3.5519
2024-03-26T05:33:22.556Z,3.5455
2024-03-26T05:34:25.344Z,3.5587
2024-03-26T05:35:28.271Z,3.5184
2024-03-26T05:36:30.971Z,3.4656
2024-03-26T05:37:33.669Z,3.3996
2024-03-26T05:38:36.442Z,3.4367
2024-03-26T05:39:39.085Z,3.5089
2024-03-26T05:40:41.860Z,3.5304
2024-03-26T05:41:44.536Z,3.5053
2024-03-26T05:42:47.291Z,3.4908
2024-03-26T05:43:50.028Z,3.3957
2024-03-26T05:44:52.793Z,3.3872
2024-03-26T05:45:55.436Z,3.3997
2024-03-26T05:46:58.177Z,3.3732
2024-03-26T05:48:00.900Z,3.3838
2024-03-26T05:49:03.622Z,3.4767
2024-03-26T05:50:06.303Z,3.5132
2024-03-26T05:51:09.037Z,3.5825
2024-03-26T05:52:11.778Z,3.6114
2024-03-26T05:53:14.500Z,3.6061
2024-03-26T05:54:17.186Z,3.6443
2024-03-26T05:55:19.937Z,3.6332
2024-03-26T05:56:22.993Z,3.7035
2024-03-26T05:57:25.694Z,3.7010
2024-03-26T05:58:28.422Z,3.7507
2024-03-26T05:59:31.124Z,3.7890
2024-03-26T06:00:33.891Z,3.7657
2024-03-26T06:01:36.587Z,3.7580
2024-03-26T06:02:39.359Z,3.7958
2024-03-26T06:03:42.054Z,3.7865
2024-03-26T06:04:44.739Z,3.8034
2024-03-26T06:05:47.570Z,3.8190
2024-03-26T06:06:50.254Z,3.7937
2024-03-26T06:07:52.916Z,3.8009
2024-03-26T06:08:55.690Z,3.8387
2024-03-26T06:09:58.347Z,3.8319
2024-03-26T06:11:01.058Z,3.8434
2024-03-26T06:12:03.741Z,3.8850
2024-03-26T06:13:07.785Z,3.8534
2024-03-26T06:14:07.084Z,3.8626
2024-03-26T06:15:09.786Z,3.8424
2024-03-26T06:16:12.474Z,3.8654
2024-03-26T06:17:15.146Z,3.9035
2024-03-26T06:18:17.809Z,3.9704
2024-03-26T06:19:20.585Z,4.0333
2024-03-26T06:20:23.250Z,4.1028
2024-03-26T06:21:25.997Z,4.1335
2024-03-26T06:22:28.762Z,4.1818
2024-03-26T06:23:31.528Z,4.2159
2024-03-26T06:24:34.173Z,4.2870
2024-03-26T06:25:36.869Z,4.3173
2024-03-26T06:26:39.613Z,4.3707
2024-03-26T06:27:42.288Z,4.3597
2024-03-26T06:28:45.056Z,4.3533
2024-03-26T06:29:47.782Z,4.4186
2024-03-26T06:30:50.491Z,4.4365
2024-03-26T06:31:53.234Z,4.5129
2024-03-26T06:32:55.987Z,4.5674
2024-03-26T06:33:58.678Z,4.6999
2024-03-26T06:35:01.373Z,4.6459
2024-03-26T06:36:04.100Z,4.7251
2024-03-26T06:37:06.805Z,4.7258
2024-03-26T06:38:09.880Z,4.8223
2024-03-26T06:39:12.625Z,4.7460
2024-03-26T06:40:15.319Z,4.8472
2024-03-26T06:41:17.996Z,4.7671
2024-03-26T06:42:20.746Z,4.6913
2024-03-26T06:43:23.459Z,4.7758
2024-03-26T06:44:26.231Z,4.8145
2024-03-26T06:45:29.223Z,4.8973
2024-03-26T06:46:31.918Z,4.9202
2024-03-26T06:47:34.650Z,5.0443
2024-03-26T06:48:37.387Z,5.0762
2024-03-26T06:49:40.147Z,5.1037
2024-03-26T06:50:42.836Z,5.2639
2024-03-26T06:51:46.135Z,5.3646
2024-03-26T06:52:48.926Z,5.4438
2024-03-26T06:53:51.608Z,5.3317
2024-03-26T06:54:54.352Z,5.2718
2024-03-26T06:55:57.076Z,5.3520
2024-03-26T06:56:59.780Z,5.5309
2024-03-26T06:58:02.558Z,5.4415
2024-03-26T06:59:05.212Z,5.5082
2024-03-26T07:00:07.922Z,5.6793
2024-03-26T07:01:10.591Z,5.6998
2024-03-26T07:02:13.390Z,5.7027
2024-03-26T07:03:16.142Z,5.6478
2024-03-26T07:04:18.817Z,5.6959
2024-03-26T07:05:21.536Z,5.7069
2024-03-26T07:06:24.256Z,5.6815
2024-03-26T07:07:26.993Z,5.6864
2024-03-26T07:08:29.687Z,5.7962
2024-03-26T07:09:32.362Z,5.7975
2024-03-26T07:10:35.134Z,5.8572
2024-03-26T07:11:37.868Z,5.9204
2024-03-26T07:12:40.557Z,5.8600
2024-03-26T07:13:43.232Z,5.7443
2024-03-26T07:14:46.036Z,5.7962
2024-03-26T07:15:48.820Z,5.7474
2024-03-26T07:16:51.478Z,5.5986
2024-03-26T07:17:54.209Z,5.6876
2024-03-26T07:18:56.873Z,5.6394
2024-03-26T07:19:59.631Z,5.6799
2024-03-26T07:21:02.340Z,5.6612
2024-03-26T07:22:05.115Z,5.5648
2024-03-26T07:23:07.754Z,5.5744
2024-03-26T07:24:10.503Z,5.6008
2024-03-26T07:25:13.241Z,5.5419
2024-03-26T07:26:15.960Z,5.5327
2024-03-26T07:27:18.663Z,5.6107
2024-03-26T07:28:21.374Z,5.6481
2024-03-26T07:29:24.099Z,5.7208
2024-03-26T07:30:26.844Z,5.7497
2024-03-26T07:31:29.511Z,5.7517
2024-03-26T07:32:32.223Z,5.8029
2024-03-26T07:33:34.985Z,5.9767
2024-03-26T07:34:37.723Z,5.8621
2024-03-26T07:35:40.443Z,5.9374
2024-03-26T07:36:43.162Z,6.0662
2024-03-26T07:37:45.859Z,6.2044
2024-03-26T07:38:48.591Z,6.3124
2024-03-26T07:39:51.277Z,6.2854
2024-03-26T07:40:53.998Z,6.4851
2024-03-26T07:41:56.743Z,6.7151
2024-03-26T07:43:01.417Z,6.7020
2024-03-26T07:43:59.419Z,6.6824
2024-03-26T07:45:02.536Z,6.9235
2024-03-26T07:46:05.208Z,7.2235
2024-03-26T07:47:08.098Z,7.2714
2024-03-26T07:48:10.857Z,7.2076
2024-03-26T07:49:13.561Z,7.2966
2024-03-26T07:50:16.302Z,7.3752
2024-03-26T07:51:19.646Z,7.4642
2024-03-26T07:52:19.545Z,7.4484
2024-03-26T07:53:22.333Z,7.3930
2024-03-26T07:54:24.947Z,7.6307
2024-03-26T07:55:27.688Z,7.6598
2024-03-26T07:56:30.389Z,7.4132
2024-03-26T07:57:33.115Z,7.6076
2024-03-26T07:58:35.786Z,7.9056
2024-03-26T07:59:38.533Z,8.0749
2024-03-26T08:00:41.323Z,8.1716
2024-03-26T08:01:44.263Z,8.1901
2024-03-26T08:02:46.948Z,8.0941
2024-03-26T08:03:49.712Z,8.0355
2024-03-26T08:04:52.414Z,8.2582
2024-03-26T08:05:55.220Z,8.2035
2024-03-26T08:06:57.941Z,8.2002
2024-03-26T08:08:00.878Z,8.3413
2024-03-26T08:09:03.612Z,8.1829
2024-03-26T08:10:06.399Z,8.1234
2024-03-26T08:11:09.381Z,8.3493
2024-03-26T08:12:12.050Z,8.3819
2024-03-26T08:13:14.823Z,8.4643
2024-03-26T08:14:17.581Z,8.5097
2024-03-26T08:15:20.303Z,8.6230
2024-03-26T08:16:23.032Z,8.9009
2024-03-26T08:17:25.735Z,8.9801
2024-03-26T08:18:28.493Z,9.1534
2024-03-26T08:19:31.630Z,9.2599
2024-03-26T08:20:31.383Z,9.2361
2024-03-26T08:21:34.079Z,9.2968
2024-03-26T08:22:36.761Z,9.4154
2024-03-26T08:23:39.480Z,9.2419
2024-03-26T08:24:42.240Z,9.1750
2024-03-26T08:25:44.940Z,9.3955
2024-03-26T08:26:47.636Z,9.3669
2024-03-26T08:27:50.341Z,9.6797
2024-03-26T08:28:53.069Z,9.6199
2024-03-26T08:29:55.777Z,9.7109
2024-03-26T08:30:58.519Z,9.7975
2024-03-26T08:32:01.218Z,9.9950
2024-03-26T08:33:04.408Z,10.0522
2024-03-26T08:34:07.142Z,10.1049
2024-03-26T08:35:09.859Z,10.1930
2024-03-26T08:36:13.017Z,10.1760
2024-03-26T08:37:12.670Z,10.4096
2024-03-26T08:38:15.355Z,10.2902
2024-03-26T08:39:18.055Z,10.1408
2024-03-26T08:40:20.941Z,10.3012
2024-03-26T08:41:23.793Z,10.0337
2024-03-26T08:42:26.519Z,10.2160
2024-03-26T08:43:29.285Z,10.1128
2024-03-26T08:44:32.351Z,9.8564
2024-03-26T08:45:35.019Z,9.8092
2024-03-26T08:46:37.706Z,10.0086
2024-03-26T08:47:40.428Z,9.8279
2024-03-26T08:48:43.152Z,9.6717
2024-03-26T08:49:45.860Z,9.6634
2024-03-26T08:50:48.606Z,9.5959
2024-03-26T08:51:52.202Z,9.5725
2024-03-26T08:52:51.571Z,9.4557
2024-03-26T08:53:54.279Z,9.6849
2024-03-26T08:54:56.979Z,9.7526
2024-03-26T08:56:08.565Z,9.7825
2024-03-26T08:57:01.407Z,9.7394
2024-03-26T08:58:04.058Z,9.9003
2024-03-26T08:59:06.806Z,10.0082
2024-03-26T09:00:09.557Z,9.8803
2024-03-26T09:01:12.279Z,10.2390
2024-03-26T09:02:14.992Z,10.2943
2024-03-26T09:03:17.772Z,10.2228
2024-03-26T09:04:21.934Z,10.3934
2024-03-26T09:05:22.608Z,10.3993
2024-03-26T09:06:25.299Z,10.4927
2024-03-26T09:07:28.206Z,10.6479
2024-03-26T09:08:31.000Z,10.6878
2024-03-26T09:09:33.696Z,10.5500
2024-03-26T09:10:36.431Z,10.7152
2024-03-26T09:11:39.146Z,11.0047
2024-03-26T09:12:41.865Z,11.1665
2024-03-26T09:13:45.019Z,11.2269
2024-03-26T09:14:47.692Z,10.9999
2024-03-26T09:15:50.482Z,11.3343
2024-03-26T09:16:53.192Z,11.2984
2024-03-26T09:17:55.922Z,11.5825
2024-03-26T09:19:01.701Z,12.0001
2024-03-26T09:20:01.641Z,11.6859
2024-03-26T09:21:04.366Z,11.4367
2024-03-26T09:22:07.316Z,11.8848
2024-03-26T09:23:10.026Z,11.6592
2024-03-26T09:24:12.719Z,11.6199
2024-03-26T09:25:15.460Z,11.3027
2024-03-26T09:26:18.195Z,11.4267
2024-03-26T09:27:20.922Z,11.6648
2024-03-26T09:28:23.692Z,11.9080
2024-03-26T09:29:26.365Z,12.1127
2024-03-26T09:30:29.377Z,12.4090
2024-03-26T09:31:32.141Z,12.3024
2024-03-26T09:32:34.830Z,12.5499
2024-03-26T09:33:37.597Z,12.2765
2024-03-26T09:34:40.332Z,11.8682
2024-03-26T09:35:43.308Z,12.0713
2024-03-26T09:36:46.158Z,12.4112
2024-03-26T09:37:49.941Z,12.8895
2024-03-26T09:38:51.048Z,12.8356
2024-03-26T09:39:51.748Z,12.1465
2024-03-26T09:40:54.555Z,12.3885
2024-03-26T09:41:57.439Z,12.0750
2024-03-26T09:43:00.167Z,12.7005
2024-03-26T09:44:03.050Z,12.5877
2024-03-26T09:45:06.857Z,11.7980
2024-03-26T09:46:06.659Z,11.8926
2024-03-26T09:47:09.377Z,11.3474
2024-03-26T09:48:12.096Z,11.3478
2024-03-26T09:49:14.830Z,11.3570
2024-03-26T09:50:17.628Z,11.5542
2024-03-26T09:51:20.571Z,11.8071
2024-03-26T09:52:23.331Z,11.5555
2024-03-26T09:53:26.068Z,11.9175
2024-03-26T09:54:28.996Z,11.8279
2024-03-26T09:55:31.805Z,12.4711
2024-03-26T09:56:34.528Z,12.0170
2024-03-26T09:57:37.274Z,12.3177
2024-03-26T09:58:40.289Z,12.2533
2024-03-26T09:59:43.093Z,12.4199
2024-03-26T10:00:45.834Z,12.8825
2024-03-26T10:01:48.548Z,12.5057
2024-03-26T10:02:51.454Z,12.7757
2024-03-26T10:03:54.509Z,12.4646
2024-03-26T10:04:57.244Z,12.7907
2024-03-26T10:06:00.097Z,12.2981
2024-03-26T10:07:02.982Z,11.9393
2024-03-26T10:08:05.715Z,11.6181
2024-03-26T10:09:08.735Z,11.6629
2024-03-26T10:10:11.488Z,11.8445
2024-03-26T10:11:14.273Z,11.5954
2024-03-26T10:12:17.243Z,11.5248
2024-03-26T10:13:20.003Z,11.9534
2024-03-26T10:14:22.771Z,12.4885
2024-03-26T10:15:25.700Z,12.6118
2024-03-26T10:16:28.426Z,12.6215
2024-03-26T10:17:33.250Z,12.6491
2024-03-26T10:18:32.854Z,12.8409
2024-03-26T10:19:35.608Z,12.4738
2024-03-26T10:20:38.412Z,11.9864
2024-03-26T10:21:41.373Z,12.2759
2024-03-26T10:22:44.108Z,12.2348
2024-03-26T10:23:46.901Z,12.6359
2024-03-26T10:24:49.858Z,12.5302
2024-03-26T10:25:52.572Z,12.7656
2024-03-26T10:26:55.381Z,13.1761
2024-03-26T10:27:58.097Z,12.9295
2024-03-26T10:29:01.082Z,12.7546
2024-03-26T10:30:03.886Z,12.6306
2024-03-26T10:31:06.653Z,11.9522
2024-03-26T10:32:09.629Z,11.5123
2024-03-26T10:33:12.560Z,11.5407
2024-03-26T10:34:15.245Z,11.7178
2024-03-26T10:35:18.021Z,11.9910
2024-03-26T10:36:20.815Z,12.1763
2024-03-26T10:37:23.548Z,12.3434
2024-03-26T10:38:26.487Z,12.2885
2024-03-26T10:39:29.285Z,11.9519
2024-03-26T10:40:32.021Z,11.7286
2024-03-26T10:41:34.935Z,12.3843
2024-03-26T10:42:37.968Z,12.1597
2024-03-26T10:43:40.695Z,12.2441
2024-03-26T10:44:43.704Z,11.9750
2024-03-26T10:45:59.960Z,12.0182
2024-03-26T10:46:49.399Z,12.1168
2024-03-26T10:47:48.938Z,11.7542
2024-03-26T10:48:57.495Z,11.8685
2024-03-26T10:49:53.414Z,11.8466
2024-03-26T10:50:56.625Z,12.0437
2024-03-26T10:51:59.377Z,11.7767
2024-03-26T10:53:02.296Z,11.5107
2024-03-26T10:54:05.103Z,11.7673
2024-03-26T10:55:07.830Z,11.9390
2024-03-26T10:56:10.714Z,11.8811
2024-03-26T10:57:13.478Z,12.1501
2024-03-26T10:58:16.201Z,12.2131
2024-03-26T10:59:18.979Z,12.3143
2024-03-26T11:00:21.946Z,12.2875
2024-03-26T11:01:24.666Z,12.3609
2024-03-26T11:02:27.396Z,12.2447
2024-03-26T11:03:30.106Z,12.4523
2024-03-26T11:04:32.831Z,13.1688
2024-03-26T11:05:35.861Z,13.6556
2024-03-26T11:06:38.606Z,13.6766
2024-03-26T11:07:41.577Z,13.6648
2024-03-26T11:08:44.360Z,13.7385
2024-03-26T11:09:47.115Z,14.1628
2024-03-26T11:10:52.500Z,13.7895
2024-03-26T11:11:52.099Z,13.8068
2024-03-26T11:12:54.890Z,14.5905
2024-03-26T11:13:57.639Z,15.1646
2024-03-26T11:15:00.454Z,15.1705
2024-03-26T11:16:03.799Z,14.8214
2024-03-26T11:17:04.044Z,15.6854
2024-03-26T11:18:06.936Z,15.6629
2024-03-26T11:19:09.727Z,16.0885
2024-03-26T11:20:12.668Z,15.9537
2024-03-26T11:21:15.396Z,15.2711
2024-03-26T11:22:18.459Z,15.0656
2024-03-26T11:23:21.258Z,14.8931
2024-03-26T11:24:23.998Z,14.5476
2024-03-26T11:25:26.788Z,14.3826
2024-03-26T11:26:29.657Z,14.6458
2024-03-26T11:27:32.676Z,15.3447
2024-03-26T11:28:35.391Z,15.1023
2024-03-26T11:29:38.302Z,14.4113
2024-03-26T11:30:41.157Z,15.3577
2024-03-26T11:31:43.956Z,15.4890
2024-03-26T11:32:46.707Z,15.4294
2024-03-26T11:33:49.631Z,16.1550
2024-03-26T11:34:52.459Z,15.3272
2024-03-26T11:35:55.202Z,15.5638
2024-03-26T11:36:58.108Z,15.7427
2024-03-26T11:38:03.485Z,16.1301
2024-03-26T11:39:03.087Z,16.2889
2024-03-26T11:40:06.024Z,16.6404
2024-03-26T11:41:08.984Z,16.9617
2024-03-26T11:42:11.867Z,16.4831
2024-03-26T11:43:14.762Z,16.7932
2024-03-26T11:44:17.554Z,16.8711
2024-03-26T11:45:20.518Z,16.1803
2024-03-26T11:46:23.267Z,16.9202
2024-03-26T11:47:26.101Z,16.4739
2024-03-26T11:48:28.844Z,16.0277
2024-03-26T11:49:31.762Z,15.8549
2024-03-26T11:50:34.536Z,15.1248
2024-03-26T11:51:37.869Z,15.2328
2024-03-26T11:52:38.301Z,15.3460
2024-03-26T11:53:41.310Z,14.8661
2024-03-26T11:54:44.118Z,14.6905
2024-03-26T11:55:47.085Z,14.9786
2024-03-26T11:56:49.848Z,15.3074
2024-03-26T11:57:52.625Z,15.1438
2024-03-26T11:58:55.578Z,15.6718
2024-03-26T11:59:58.326Z,15.9252
2024-03-26T12:01:01.099Z,15.9244
2024-03-26T12:02:03.839Z,15.0444
2024-03-26T12:03:06.796Z,14.6872
2024-03-26T12:04:09.524Z,15.1683
2024-03-26T12:05:12.527Z,15.4171
2024-03-26T12:06:15.245Z,14.9056
2024-03-26T12:07:17.996Z,15.6963
2024-03-26T12:08:20.749Z,15.9615
2024-03-26T12:09:23.545Z,16.2413
2024-03-26T12:10:26.317Z,16.1434
2024-03-26T12:11:29.191Z,15.9414
2024-03-26T12:12:31.879Z,15.9206
2024-03-26T12:13:34.607Z,16.3426
2024-03-26T12:14:37.345Z,16.4140
2024-03-26T12:15:40.374Z,16.6527
2024-03-26T12:16:43.331Z,16.7206
2024-03-26T12:17:46.230Z,16.6223
2024-03-26T12:18:48.969Z,16.6098
2024-03-26T12:19:51.882Z,16.2263
2024-03-26T12:20:54.946Z,16.3926
2024-03-26T12:21:57.693Z,16.0894
2024-03-26T12:23:00.492Z,16.3514
2024-03-26T12:24:03.272Z,16.5941
2024-03-26T12:25:06.166Z,16.6089
2024-03-26T12:26:08.910Z,16.5128
2024-03-26T12:27:11.844Z,15.8337
2024-03-26T12:28:14.649Z,16.3708
2024-03-26T12:29:17.399Z,16.9203
2024-03-26T12:30:20.404Z,16.8206
2024-03-26T12:31:23.325Z,16.7945
2024-03-26T12:32:26.124Z,16.5824
2024-03-26T12:33:28.949Z,17.2381
2024-03-26T12:34:31.871Z,17.5867
2024-03-26T12:35:34.624Z,17.8100
2024-03-26T12:36:37.460Z,17.9361
2024-03-26T12:37:40.390Z,17.5062
2024-03-26T12:38:43.128Z,17.5498
2024-03-26T12:39:46.109Z,17.6854
2024-03-26T12:40:48.949Z,17.3259
2024-03-26T12:41:51.696Z,17.0553
2024-03-26T12:42:54.611Z,16.8110
2024-03-26T12:43:57.330Z,16.9835
2024-03-26T12:45:00.167Z,17.2274
2024-03-26T12:46:02.974Z,17.2093
2024-03-26T12:47:05.825Z,16.7230
2024-03-26T12:48:08.649Z,16.7686
2024-03-26T12:49:11.568Z,16.9859
2024-03-26T12:50:14.392Z,16.7770
2024-03-26T12:51:17.145Z,17.0924
2024-03-26T12:52:20.041Z,17.6748
2024-03-26T12:53:22.766Z,17.8389
2024-03-26T12:54:25.816Z,17.8773
2024-03-26T12:55:28.522Z,18.2042